sensor_id;sensor_type;location;lat;lon;timestamp;temperature;humidity
5415;DHT22;2730;51.512;7.504;2024-01-16T00:01:15;1.40;99.90
5415;DHT22;2730;51.512;7.504;2024-01-16T00:03:43;1.40;99.90
5415;DHT22;2730;51.512;7.504;2024-01-16T00:06:11;1.40;99.90
5415;DHT22;2730;51.512;7.504;2024-01-16T00:08:37;1.40;99.90
5415;DHT22;2730;51.512;7.504;2024-01-16T00:11:04;1.30;99.90
5415;DHT22;2730;51.512;7.504;2024-01-16T00:13:32;1.30;99.90
5415;DHT22;2730;51.512;7.504;2024-01-16T00:16:01;1.30;99.90
5415;DHT22;2730;51.512;7.504;2024-01-16T00:18:29;1.30;99.90
5415;DHT22;2730;51.512;7.504;2024-01-16T00:20:56;1.20;99.90
5415;DHT22;2730;51.512;7.504;2024-01-16T00:23:25;1.30;99.90
5415;DHT22;2730;51.512;7.504;2024-01-16T00:25:52;1.30;99.90
5415;DHT22;2730;51.512;7.504;2024-01-16T00:28:19;1.40;99.90
5415;DHT22;2730;51.512;7.504;2024-01-16T00:30:46;1.40;99.90
5415;DHT22;2730;51.512;7.504;2024-01-16T00:33:13;1.50;99.90
5415;DHT22;2730;51.512;7.504;2024-01-16T00:35:42;1.50;99.90
5415;DHT22;2730;51.512;7.504;2024-01-16T00:38:09;1.50;99.90
5415;DHT22;2730;51.512;7.504;2024-01-16T00:40:37;1.50;99.90
5415;DHT22;2730;51.512;7.504;2024-01-16T00:43:04;1.50;99.90
5415;DHT22;2730;51.512;7.504;2024-01-16T00:45:32;1.60;99.90
5415;DHT22;2730;51.512;7.504;2024-01-16T00:47:59;1.50;99.90
5415;DHT22;2730;51.512;7.504;2024-01-16T00:50:26;1.50;99.90
5415;DHT22;2730;51.512;7.504;2024-01-16T00:52:54;1.40;99.90
5415;DHT22;2730;51.512;7.504;2024-01-16T00:55:21;1.40;99.90
5415;DHT22;2730;51.512;7.504;2024-01-16T00:57:48;1.40;99.90
5415;DHT22;2730;51.512;7.504;2024-01-16T01:00:15;1.50;99.90
5415;DHT22;2730;51.512;7.504;2024-01-16T01:02:42;1.50;99.90
5415;DHT22;2730;51.512;7.504;2024-01-16T01:05:10;1.50;99.90
5415;DHT22;2730;51.512;7.504;2024-01-16T01:07:37;1.40;99.90
5415;DHT22;2730;51.512;7.504;2024-01-16T01:10:06;1.40;99.90
5415;DHT22;2730;51.512;7.504;2024-01-16T01:12:33;1.50;99.90
5415;DHT22;2730;51.512;7.504;2024-01-16T01:15:01;1.40;99.90
5415;DHT22;2730;51.512;7.504;2024-01-16T01:17:28;1.40;99.90
5415;DHT22;2730;51.512;7.504;2024-01-16T01:19:55;1.40;99.90
5415;DHT22;2730;51.512;7.504;2024-01-16T01:22:22;1.40;99.90
5415;DHT22;2730;51.512;7.504;2024-01-16T01:24:49;1.30;99.90
5415;DHT22;2730;51.512;7.504;2024-01-16T01:27:17;1.10;99.90
5415;DHT22;2730;51.512;7.504;2024-01-16T01:29:43;1.00;99.90
5415;DHT22;2730;51.512;7.504;2024-01-16T01:32:11;1.00;99.90
5415;DHT22;2730;51.512;7.504;2024-01-16T01:34:37;0.80;99.90
5415;DHT22;2730;51.512;7.504;2024-01-16T01:37:04;0.80;99.90
5415;DHT22;2730;51.512;7.504;2024-01-16T01:39:31;0.80;99.90
5415;DHT22;2730;51.512;7.504;2024-01-16T01:41:58;0.80;1.00
5415;DHT22;2730;51.512;7.504;2024-01-16T01:44:27;0.80;1.00
5415;DHT22;2730;51.512;7.504;2024-01-16T01:46:56;0.80;1.00
5415;DHT22;2730;51.512;7.504;2024-01-16T01:49:23;0.90;1.00
5415;DHT22;2730;51.512;7.504;2024-01-16T01:51:50;0.90;1.00
5415;DHT22;2730;51.512;7.504;2024-01-16T01:54:17;0.90;1.00
5415;DHT22;2730;51.512;7.504;2024-01-16T01:56:47;1.00;1.00
5415;DHT22;2730;51.512;7.504;2024-01-16T01:59:14;1.00;99.90
5415;DHT22;2730;51.512;7.504;2024-01-16T02:01:46;1.00;99.90
5415;DHT22;2730;51.512;7.504;2024-01-16T02:04:14;1.00;99.90
5415;DHT22;2730;51.512;7.504;2024-01-16T02:06:42;1.00;99.90
5415;DHT22;2730;51.512;7.504;2024-01-16T02:09:10;1.10;99.90
5415;DHT22;2730;51.512;7.504;2024-01-16T02:11:41;1.10;99.90
5415;DHT22;2730;51.512;7.504;2024-01-16T02:14:10;1.10;99.90
5415;DHT22;2730;51.512;7.504;2024-01-16T02:16:38;1.10;99.90
5415;DHT22;2730;51.512;7.504;2024-01-16T02:19:07;1.10;99.90
5415;DHT22;2730;51.512;7.504;2024-01-16T02:21:38;1.10;99.90
5415;DHT22;2730;51.512;7.504;2024-01-16T02:24:08;1.20;99.90
5415;DHT22;2730;51.512;7.504;2024-01-16T02:26:36;1.20;99.90
5415;DHT22;2730;51.512;7.504;2024-01-16T02:29:03;1.10;99.90
5415;DHT22;2730;51.512;7.504;2024-01-16T02:31:30;1.10;99.90
5415;DHT22;2730;51.512;7.504;2024-01-16T02:33:57;1.10;99.90
5415;DHT22;2730;51.512;7.504;2024-01-16T02:36:23;1.10;99.90
5415;DHT22;2730;51.512;7.504;2024-01-16T02:38:50;1.10;99.90
5415;DHT22;2730;51.512;7.504;2024-01-16T02:41:21;1.00;99.90
5415;DHT22;2730;51.512;7.504;2024-01-16T02:43:49;1.00;99.90
5415;DHT22;2730;51.512;7.504;2024-01-16T02:46:17;1.10;99.90
5415;DHT22;2730;51.512;7.504;2024-01-16T02:48:44;1.10;99.90
5415;DHT22;2730;51.512;7.504;2024-01-16T02:51:12;1.10;99.90
5415;DHT22;2730;51.512;7.504;2024-01-16T02:53:38;1.00;99.90
5415;DHT22;2730;51.512;7.504;2024-01-16T02:56:07;1.10;99.90
5415;DHT22;2730;51.512;7.504;2024-01-16T02:58:35;1.00;99.90
5415;DHT22;2730;51.512;7.504;2024-01-16T03:01:02;1.00;99.90
5415;DHT22;2730;51.512;7.504;2024-01-16T03:03:29;1.00;99.90
5415;DHT22;2730;51.512;7.504;2024-01-16T03:05:55;1.00;99.90
5415;DHT22;2730;51.512;7.504;2024-01-16T03:08:22;1.00;99.90
5415;DHT22;2730;51.512;7.504;2024-01-16T03:10:50;1.10;99.90
5415;DHT22;2730;51.512;7.504;2024-01-16T03:13:17;1.00;99.90
5415;DHT22;2730;51.512;7.504;2024-01-16T03:15:45;1.00;99.90
5415;DHT22;2730;51.512;7.504;2024-01-16T03:18:12;1.00;99.90
5415;DHT22;2730;51.512;7.504;2024-01-16T03:20:39;1.00;99.90
5415;DHT22;2730;51.512;7.504;2024-01-16T03:23:06;1.00;99.90
5415;DHT22;2730;51.512;7.504;2024-01-16T03:25:33;1.10;99.90
5415;DHT22;2730;51.512;7.504;2024-01-16T03:28:05;1.20;99.90
5415;DHT22;2730;51.512;7.504;2024-01-16T03:30:33;1.20;99.90
5415;DHT22;2730;51.512;7.504;2024-01-16T03:33:03;1.20;99.90
5415;DHT22;2730;51.512;7.504;2024-01-16T03:35:31;1.20;99.90
5415;DHT22;2730;51.512;7.504;2024-01-16T03:37:58;1.30;99.90
5415;DHT22;2730;51.512;7.504;2024-01-16T03:40:25;1.40;99.90
5415;DHT22;2730;51.512;7.504;2024-01-16T03:42:52;1.40;99.90
5415;DHT22;2730;51.512;7.504;2024-01-16T03:45:20;1.30;99.90
5415;DHT22;2730;51.512;7.504;2024-01-16T03:47:46;1.30;99.90
5415;DHT22;2730;51.512;7.504;2024-01-16T03:50:17;1.30;99.90
5415;DHT22;2730;51.512;7.504;2024-01-16T03:52:43;1.30;99.90
5415;DHT22;2730;51.512;7.504;2024-01-16T03:55:10;1.30;99.90
5415;DHT22;2730;51.512;7.504;2024-01-16T03:57:37;1.30;99.90
5415;DHT22;2730;51.512;7.504;2024-01-16T04:00:05;1.20;99.90
5415;DHT22;2730;51.512;7.504;2024-01-16T04:02:32;1.20;99.90
5415;DHT22;2730;51.512;7.504;2024-01-16T04:04:58;1.30;99.90
5415;DHT22;2730;51.512;7.504;2024-01-16T04:07:27;1.30;99.90
5415;DHT22;2730;51.512;7.504;2024-01-16T04:09:54;1.30;99.90
5415;DHT22;2730;51.512;7.504;2024-01-16T04:12:21;1.40;99.90
5415;DHT22;2730;51.512;7.504;2024-01-16T04:14:50;1.40;99.90
5415;DHT22;2730;51.512;7.504;2024-01-16T04:17:16;1.40;99.90
5415;DHT22;2730;51.512;7.504;2024-01-16T04:19:43;1.40;99.90
5415;DHT22;2730;51.512;7.504;2024-01-16T04:22:10;1.50;99.90
5415;DHT22;2730;51.512;7.504;2024-01-16T04:24:38;1.50;99.90
5415;DHT22;2730;51.512;7.504;2024-01-16T04:27:05;1.50;99.90
5415;DHT22;2730;51.512;7.504;2024-01-16T04:29:36;1.50;99.90
5415;DHT22;2730;51.512;7.504;2024-01-16T04:32:03;1.50;99.90
5415;DHT22;2730;51.512;7.504;2024-01-16T04:34:32;1.50;99.90
5415;DHT22;2730;51.512;7.504;2024-01-16T04:37:00;1.40;99.90
5415;DHT22;2730;51.512;7.504;2024-01-16T04:39:27;1.50;99.90
5415;DHT22;2730;51.512;7.504;2024-01-16T04:41:55;1.50;99.90
5415;DHT22;2730;51.512;7.504;2024-01-16T04:44:22;1.50;99.90
5415;DHT22;2730;51.512;7.504;2024-01-16T04:46:49;1.40;99.90
5415;DHT22;2730;51.512;7.504;2024-01-16T04:49:16;1.40;99.90
5415;DHT22;2730;51.512;7.504;2024-01-16T04:51:43;1.40;99.90
5415;DHT22;2730;51.512;7.504;2024-01-16T04:54:11;1.40;99.90
5415;DHT22;2730;51.512;7.504;2024-01-16T04:56:40;1.40;99.90
5415;DHT22;2730;51.512;7.504;2024-01-16T04:59:08;1.40;99.90
5415;DHT22;2730;51.512;7.504;2024-01-16T05:01:35;1.40;99.90
5415;DHT22;2730;51.512;7.504;2024-01-16T05:04:01;1.40;99.90
5415;DHT22;2730;51.512;7.504;2024-01-16T05:06:29;1.50;99.90
5415;DHT22;2730;51.512;7.504;2024-01-16T05:08:56;1.40;99.90
5415;DHT22;2730;51.512;7.504;2024-01-16T05:11:22;1.40;99.90
5415;DHT22;2730;51.512;7.504;2024-01-16T05:13:49;1.40;99.90
5415;DHT22;2730;51.512;7.504;2024-01-16T05:16:24;1.40;99.90
5415;DHT22;2730;51.512;7.504;2024-01-16T05:18:52;1.40;99.90
5415;DHT22;2730;51.512;7.504;2024-01-16T05:21:19;1.50;99.90
5415;DHT22;2730;51.512;7.504;2024-01-16T05:23:46;1.30;99.90
5415;DHT22;2730;51.512;7.504;2024-01-16T05:26:13;1.40;99.90
5415;DHT22;2730;51.512;7.504;2024-01-16T05:28:39;1.40;99.90
5415;DHT22;2730;51.512;7.504;2024-01-16T05:31:06;1.50;99.90
5415;DHT22;2730;51.512;7.504;2024-01-16T05:33:36;1.40;99.90
5415;DHT22;2730;51.512;7.504;2024-01-16T05:36:03;1.40;99.90
5415;DHT22;2730;51.512;7.504;2024-01-16T05:38:30;1.40;99.90
5415;DHT22;2730;51.512;7.504;2024-01-16T05:40:57;1.30;99.90
5415;DHT22;2730;51.512;7.504;2024-01-16T05:43:24;1.30;99.90
5415;DHT22;2730;51.512;7.504;2024-01-16T05:45:53;1.40;99.90
5415;DHT22;2730;51.512;7.504;2024-01-16T05:48:20;1.40;99.90
5415;DHT22;2730;51.512;7.504;2024-01-16T05:50:48;1.30;99.90
5415;DHT22;2730;51.512;7.504;2024-01-16T05:53:15;1.30;99.90
5415;DHT22;2730;51.512;7.504;2024-01-16T05:55:42;1.30;99.90
5415;DHT22;2730;51.512;7.504;2024-01-16T05:58:09;1.40;99.90
5415;DHT22;2730;51.512;7.504;2024-01-16T06:00:36;1.40;99.90
5415;DHT22;2730;51.512;7.504;2024-01-16T06:03:03;1.30;99.90
5415;DHT22;2730;51.512;7.504;2024-01-16T06:05:30;1.30;99.90
5415;DHT22;2730;51.512;7.504;2024-01-16T06:07:58;1.30;99.90
5415;DHT22;2730;51.512;7.504;2024-01-16T06:10:25;1.40;99.90
5415;DHT22;2730;51.512;7.504;2024-01-16T06:12:52;1.40;99.90
5415;DHT22;2730;51.512;7.504;2024-01-16T06:15:21;1.50;99.90
5415;DHT22;2730;51.512;7.504;2024-01-16T06:17:48;1.40;99.90
5415;DHT22;2730;51.512;7.504;2024-01-16T06:20:15;1.50;99.90
5415;DHT22;2730;51.512;7.504;2024-01-16T06:22:42;1.50;99.90
5415;DHT22;2730;51.512;7.504;2024-01-16T06:25:12;1.50;99.90
5415;DHT22;2730;51.512;7.504;2024-01-16T06:27:40;1.40;99.90
5415;DHT22;2730;51.512;7.504;2024-01-16T06:30:08;1.50;99.90
5415;DHT22;2730;51.512;7.504;2024-01-16T06:32:35;1.50;99.90
5415;DHT22;2730;51.512;7.504;2024-01-16T06:35:02;1.40;99.90
5415;DHT22;2730;51.512;7.504;2024-01-16T06:37:29;1.50;99.90
5415;DHT22;2730;51.512;7.504;2024-01-16T06:39:55;1.40;99.90
5415;DHT22;2730;51.512;7.504;2024-01-16T06:42:23;1.30;99.90
5415;DHT22;2730;51.512;7.504;2024-01-16T06:44:50;1.40;99.90
5415;DHT22;2730;51.512;7.504;2024-01-16T06:47:20;1.40;99.90
5415;DHT22;2730;51.512;7.504;2024-01-16T06:49:49;1.50;99.90
5415;DHT22;2730;51.512;7.504;2024-01-16T06:52:15;1.40;97.90
5415;DHT22;2730;51.512;7.504;2024-01-16T06:54:43;1.40;99.90
5415;DHT22;2730;51.512;7.504;2024-01-16T06:57:10;1.30;98.60
5415;DHT22;2730;51.512;7.504;2024-01-16T06:59:38;1.30;99.90
5415;DHT22;2730;51.512;7.504;2024-01-16T07:02:06;1.20;99.90
5415;DHT22;2730;51.512;7.504;2024-01-16T07:04:33;1.30;99.90
5415;DHT22;2730;51.512;7.504;2024-01-16T07:07:00;1.30;99.90
5415;DHT22;2730;51.512;7.504;2024-01-16T07:09:27;1.30;99.90
5415;DHT22;2730;51.512;7.504;2024-01-16T07:11:54;1.30;99.90
5415;DHT22;2730;51.512;7.504;2024-01-16T07:14:21;1.30;99.90
5415;DHT22;2730;51.512;7.504;2024-01-16T07:16:50;1.30;99.90
5415;DHT22;2730;51.512;7.504;2024-01-16T07:19:17;1.30;99.90
5415;DHT22;2730;51.512;7.504;2024-01-16T07:21:44;1.40;99.90
5415;DHT22;2730;51.512;7.504;2024-01-16T07:24:11;1.40;95.10
5415;DHT22;2730;51.512;7.504;2024-01-16T07:26:39;1.50;99.90
5415;DHT22;2730;51.512;7.504;2024-01-16T07:29:07;1.40;99.90
5415;DHT22;2730;51.512;7.504;2024-01-16T07:31:34;1.40;99.90
5415;DHT22;2730;51.512;7.504;2024-01-16T07:34:02;1.30;99.90
5415;DHT22;2730;51.512;7.504;2024-01-16T07:36:30;1.50;99.90
5415;DHT22;2730;51.512;7.504;2024-01-16T07:38:56;1.40;99.90
5415;DHT22;2730;51.512;7.504;2024-01-16T07:41:23;1.60;87.70
5415;DHT22;2730;51.512;7.504;2024-01-16T07:43:50;1.50;30.20
5415;DHT22;2730;51.512;7.504;2024-01-16T07:46:17;1.50;51.10
5415;DHT22;2730;51.512;7.504;2024-01-16T07:48:44;1.50;38.10
5415;DHT22;2730;51.512;7.504;2024-01-16T07:51:12;1.60;1.00
5415;DHT22;2730;51.512;7.504;2024-01-16T07:53:39;1.60;10.60
5415;DHT22;2730;51.512;7.504;2024-01-16T07:56:06;1.50;1.00
5415;DHT22;2730;51.512;7.504;2024-01-16T07:58:33;1.50;1.00
5415;DHT22;2730;51.512;7.504;2024-01-16T08:00:59;1.50;1.00
5415;DHT22;2730;51.512;7.504;2024-01-16T08:03:26;1.50;1.00
5415;DHT22;2730;51.512;7.504;2024-01-16T08:05:56;1.40;1.00
5415;DHT22;2730;51.512;7.504;2024-01-16T08:08:26;1.50;1.00
5415;DHT22;2730;51.512;7.504;2024-01-16T08:10:53;1.50;1.00
5415;DHT22;2730;51.512;7.504;2024-01-16T08:13:23;1.50;1.00
5415;DHT22;2730;51.512;7.504;2024-01-16T08:15:50;1.60;1.00
5415;DHT22;2730;51.512;7.504;2024-01-16T08:18:17;1.50;1.00
5415;DHT22;2730;51.512;7.504;2024-01-16T08:20:44;1.60;1.00
5415;DHT22;2730;51.512;7.504;2024-01-16T08:23:11;1.40;1.00
5415;DHT22;2730;51.512;7.504;2024-01-16T08:25:39;1.40;1.00
5415;DHT22;2730;51.512;7.504;2024-01-16T08:28:06;1.40;1.00
5415;DHT22;2730;51.512;7.504;2024-01-16T08:30:32;1.40;1.00
5415;DHT22;2730;51.512;7.504;2024-01-16T08:32:59;1.50;1.00
5415;DHT22;2730;51.512;7.504;2024-01-16T08:35:28;1.50;1.00
5415;DHT22;2730;51.512;7.504;2024-01-16T08:37:55;1.40;1.00
5415;DHT22;2730;51.512;7.504;2024-01-16T08:40:22;1.50;1.00
5415;DHT22;2730;51.512;7.504;2024-01-16T08:42:50;1.40;1.00
5415;DHT22;2730;51.512;7.504;2024-01-16T08:45:20;1.50;1.00
5415;DHT22;2730;51.512;7.504;2024-01-16T08:47:47;1.50;1.00
5415;DHT22;2730;51.512;7.504;2024-01-16T08:50:15;1.50;99.90
5415;DHT22;2730;51.512;7.504;2024-01-16T08:52:42;1.40;99.90
5415;DHT22;2730;51.512;7.504;2024-01-16T08:55:11;1.30;99.90
5415;DHT22;2730;51.512;7.504;2024-01-16T08:57:38;1.40;99.90
5415;DHT22;2730;51.512;7.504;2024-01-16T09:00:07;1.50;99.90
5415;DHT22;2730;51.512;7.504;2024-01-16T09:02:34;1.50;99.90
5415;DHT22;2730;51.512;7.504;2024-01-16T09:05:01;1.50;99.90
5415;DHT22;2730;51.512;7.504;2024-01-16T09:07:28;1.50;99.90
5415;DHT22;2730;51.512;7.504;2024-01-16T09:09:54;1.60;1.00
5415;DHT22;2730;51.512;7.504;2024-01-16T09:12:21;1.50;1.00
5415;DHT22;2730;51.512;7.504;2024-01-16T09:14:48;1.50;4.30
5415;DHT22;2730;51.512;7.504;2024-01-16T09:17:17;1.50;84.20
5415;DHT22;2730;51.512;7.504;2024-01-16T09:19:47;1.60;1.00
5415;DHT22;2730;51.512;7.504;2024-01-16T09:22:14;1.60;99.90
5415;DHT22;2730;51.512;7.504;2024-01-16T09:24:41;1.60;99.90
5415;DHT22;2730;51.512;7.504;2024-01-16T09:27:08;1.50;99.90
5415;DHT22;2730;51.512;7.504;2024-01-16T09:29:35;1.50;99.90
5415;DHT22;2730;51.512;7.504;2024-01-16T09:32:02;1.50;99.90
5415;DHT22;2730;51.512;7.504;2024-01-16T09:34:31;1.50;99.90
5415;DHT22;2730;51.512;7.504;2024-01-16T09:36:58;1.50;99.90
5415;DHT22;2730;51.512;7.504;2024-01-16T09:39:27;1.60;99.90
5415;DHT22;2730;51.512;7.504;2024-01-16T09:41:57;1.60;99.90
5415;DHT22;2730;51.512;7.504;2024-01-16T09:44:26;1.60;99.90
5415;DHT22;2730;51.512;7.504;2024-01-16T09:47:01;1.70;1.00
5415;DHT22;2730;51.512;7.504;2024-01-16T09:49:31;1.70;1.00
5415;DHT22;2730;51.512;7.504;2024-01-16T09:51:58;1.60;1.00
5415;DHT22;2730;51.512;7.504;2024-01-16T09:54:28;1.70;99.90
5415;DHT22;2730;51.512;7.504;2024-01-16T09:56:58;1.80;99.90
5415;DHT22;2730;51.512;7.504;2024-01-16T09:59:27;1.80;99.90
5415;DHT22;2730;51.512;7.504;2024-01-16T10:01:55;1.80;1.00
5415;DHT22;2730;51.512;7.504;2024-01-16T10:04:23;1.90;99.90
5415;DHT22;2730;51.512;7.504;2024-01-16T10:06:53;1.90;99.90
5415;DHT22;2730;51.512;7.504;2024-01-16T10:09:21;1.90;1.00
5415;DHT22;2730;51.512;7.504;2024-01-16T10:11:49;1.80;1.00
5415;DHT22;2730;51.512;7.504;2024-01-16T10:14:18;1.80;13.40
5415;DHT22;2730;51.512;7.504;2024-01-16T10:16:58;1.80;90.00
5415;DHT22;2730;51.512;7.504;2024-01-16T10:19:29;1.80;1.00
5415;DHT22;2730;51.512;7.504;2024-01-16T10:22:02;1.80;9.30
5415;DHT22;2730;51.512;7.504;2024-01-16T10:24:29;1.90;1.00
5415;DHT22;2730;51.512;7.504;2024-01-16T10:27:00;1.90;44.80
5415;DHT22;2730;51.512;7.504;2024-01-16T10:29:28;2.00;1.00
5415;DHT22;2730;51.512;7.504;2024-01-16T10:31:56;1.90;1.00
5415;DHT22;2730;51.512;7.504;2024-01-16T10:34:24;2.00;1.00
5415;DHT22;2730;51.512;7.504;2024-01-16T10:36:53;2.10;1.00
5415;DHT22;2730;51.512;7.504;2024-01-16T10:39:26;2.10;99.90
5415;DHT22;2730;51.512;7.504;2024-01-16T10:41:56;2.10;99.90
5415;DHT22;2730;51.512;7.504;2024-01-16T10:44:24;2.10;1.00
5415;DHT22;2730;51.512;7.504;2024-01-16T10:46:56;2.10;1.00
5415;DHT22;2730;51.512;7.504;2024-01-16T10:49:35;2.10;1.00
5415;DHT22;2730;51.512;7.504;2024-01-16T10:52:04;2.10;1.00
5415;DHT22;2730;51.512;7.504;2024-01-16T10:54:38;2.30;1.00
5415;DHT22;2730;51.512;7.504;2024-01-16T10:57:07;2.30;1.00
5415;DHT22;2730;51.512;7.504;2024-01-16T10:59:40;2.40;1.00
5415;DHT22;2730;51.512;7.504;2024-01-16T11:02:11;2.40;99.90
5415;DHT22;2730;51.512;7.504;2024-01-16T11:04:40;2.40;1.00
5415;DHT22;2730;51.512;7.504;2024-01-16T11:07:08;2.40;1.00
5415;DHT22;2730;51.512;7.504;2024-01-16T11:09:38;2.60;99.90
5415;DHT22;2730;51.512;7.504;2024-01-16T11:12:08;2.60;99.90
5415;DHT22;2730;51.512;7.504;2024-01-16T11:14:37;2.60;99.90
5415;DHT22;2730;51.512;7.504;2024-01-16T11:17:05;2.70;99.90
5415;DHT22;2730;51.512;7.504;2024-01-16T11:19:37;2.90;99.90
5415;DHT22;2730;51.512;7.504;2024-01-16T11:22:04;3.00;99.90
5415;DHT22;2730;51.512;7.504;2024-01-16T11:24:31;2.90;95.40
5415;DHT22;2730;51.512;7.504;2024-01-16T11:26:59;3.00;99.90
5415;DHT22;2730;51.512;7.504;2024-01-16T11:29:35;3.20;99.90
5415;DHT22;2730;51.512;7.504;2024-01-16T11:32:03;3.20;99.90
5415;DHT22;2730;51.512;7.504;2024-01-16T11:34:52;3.20;71.10
5415;DHT22;2730;51.512;7.504;2024-01-16T11:37:26;3.30;11.60
5415;DHT22;2730;51.512;7.504;2024-01-16T11:40:21;3.30;1.00
5415;DHT22;2730;51.512;7.504;2024-01-16T11:42:50;2.90;1.00
5415;DHT22;2730;51.512;7.504;2024-01-16T11:45:48;2.80;1.10
5415;DHT22;2730;51.512;7.504;2024-01-16T11:48:17;2.70;60.30
5415;DHT22;2730;51.512;7.504;2024-01-16T11:50:45;2.70;28.60
5415;DHT22;2730;51.512;7.504;2024-01-16T11:53:33;2.60;51.10
5415;DHT22;2730;51.512;7.504;2024-01-16T11:59:27;2.70;59.70
5415;DHT22;2730;51.512;7.504;2024-01-16T12:02:00;2.60;18.90
5415;DHT22;2730;51.512;7.504;2024-01-16T12:04:28;2.50;10.20
5415;DHT22;2730;51.512;7.504;2024-01-16T12:06:57;2.40;28.70
5415;DHT22;2730;51.512;7.504;2024-01-16T12:09:26;2.40;7.00
5415;DHT22;2730;51.512;7.504;2024-01-16T12:11:56;2.40;1.00
5415;DHT22;2730;51.512;7.504;2024-01-16T12:14:25;2.40;1.00
5415;DHT22;2730;51.512;7.504;2024-01-16T12:16:52;2.40;1.00
5415;DHT22;2730;51.512;7.504;2024-01-16T12:19:18;2.40;5.90
5415;DHT22;2730;51.512;7.504;2024-01-16T12:21:45;2.50;6.50
5415;DHT22;2730;51.512;7.504;2024-01-16T12:24:13;2.60;13.60
5415;DHT22;2730;51.512;7.504;2024-01-16T12:26:40;2.60;13.70
5415;DHT22;2730;51.512;7.504;2024-01-16T12:29:07;2.70;30.70
5415;DHT22;2730;51.512;7.504;2024-01-16T12:31:36;2.70;55.60
5415;DHT22;2730;51.512;7.504;2024-01-16T12:34:07;2.90;29.40
5415;DHT22;2730;51.512;7.504;2024-01-16T12:36:34;3.00;1.00
5415;DHT22;2730;51.512;7.504;2024-01-16T12:39:03;3.00;1.00
5415;DHT22;2730;51.512;7.504;2024-01-16T12:41:34;2.80;1.00
5415;DHT22;2730;51.512;7.504;2024-01-16T12:44:03;2.80;1.00
5415;DHT22;2730;51.512;7.504;2024-01-16T12:46:30;2.70;1.00
5415;DHT22;2730;51.512;7.504;2024-01-16T12:49:01;2.80;1.00
5415;DHT22;2730;51.512;7.504;2024-01-16T12:51:28;2.60;1.00
5415;DHT22;2730;51.512;7.504;2024-01-16T12:54:11;2.60;1.00
5415;DHT22;2730;51.512;7.504;2024-01-16T12:56:38;2.80;1.00
5415;DHT22;2730;51.512;7.504;2024-01-16T12:59:09;2.60;1.00
5415;DHT22;2730;51.512;7.504;2024-01-16T13:01:39;2.70;1.00
5415;DHT22;2730;51.512;7.504;2024-01-16T13:04:08;2.60;1.00
5415;DHT22;2730;51.512;7.504;2024-01-16T13:06:35;2.60;1.00
5415;DHT22;2730;51.512;7.504;2024-01-16T13:09:06;2.40;1.00
5415;DHT22;2730;51.512;7.504;2024-01-16T13:11:52;2.40;1.00
5415;DHT22;2730;51.512;7.504;2024-01-16T13:14:20;2.30;1.00
5415;DHT22;2730;51.512;7.504;2024-01-16T13:16:47;2.30;1.00
5415;DHT22;2730;51.512;7.504;2024-01-16T13:19:18;2.40;1.00
5415;DHT22;2730;51.512;7.504;2024-01-16T13:21:46;2.40;1.00
5415;DHT22;2730;51.512;7.504;2024-01-16T13:24:13;2.30;1.00
5415;DHT22;2730;51.512;7.504;2024-01-16T13:26:40;2.30;1.00
5415;DHT22;2730;51.512;7.504;2024-01-16T13:29:09;2.20;1.00
5415;DHT22;2730;51.512;7.504;2024-01-16T13:31:36;2.20;1.00
5415;DHT22;2730;51.512;7.504;2024-01-16T13:34:04;2.30;1.00
5415;DHT22;2730;51.512;7.504;2024-01-16T13:36:32;2.20;1.00
5415;DHT22;2730;51.512;7.504;2024-01-16T13:38:58;2.20;1.00
5415;DHT22;2730;51.512;7.504;2024-01-16T13:41:28;2.20;1.00
5415;DHT22;2730;51.512;7.504;2024-01-16T13:43:55;2.30;1.00
5415;DHT22;2730;51.512;7.504;2024-01-16T13:46:22;2.40;1.00
5415;DHT22;2730;51.512;7.504;2024-01-16T13:48:49;2.40;1.00
5415;DHT22;2730;51.512;7.504;2024-01-16T13:51:15;2.30;1.00
5415;DHT22;2730;51.512;7.504;2024-01-16T13:53:44;2.30;1.00
5415;DHT22;2730;51.512;7.504;2024-01-16T13:56:11;2.30;1.00
5415;DHT22;2730;51.512;7.504;2024-01-16T13:58:38;2.40;1.00
5415;DHT22;2730;51.512;7.504;2024-01-16T14:01:05;2.30;1.00
5415;DHT22;2730;51.512;7.504;2024-01-16T14:03:31;2.20;1.00
5415;DHT22;2730;51.512;7.504;2024-01-16T14:05:58;2.20;1.00
5415;DHT22;2730;51.512;7.504;2024-01-16T14:08:25;2.10;21.30
5415;DHT22;2730;51.512;7.504;2024-01-16T14:10:53;2.20;13.90
5415;DHT22;2730;51.512;7.504;2024-01-16T14:13:21;2.20;5.50
5415;DHT22;2730;51.512;7.504;2024-01-16T14:15:50;2.20;1.00
5415;DHT22;2730;51.512;7.504;2024-01-16T14:18:17;2.30;1.00
5415;DHT22;2730;51.512;7.504;2024-01-16T14:20:45;2.20;1.00
5415;DHT22;2730;51.512;7.504;2024-01-16T14:23:12;2.20;1.00
5415;DHT22;2730;51.512;7.504;2024-01-16T14:25:40;2.20;1.00
5415;DHT22;2730;51.512;7.504;2024-01-16T14:28:08;2.10;1.00
5415;DHT22;2730;51.512;7.504;2024-01-16T14:30:36;2.00;1.00
5415;DHT22;2730;51.512;7.504;2024-01-16T14:33:03;2.10;2.50
5415;DHT22;2730;51.512;7.504;2024-01-16T14:35:32;2.10;5.80
5415;DHT22;2730;51.512;7.504;2024-01-16T14:37:58;2.00;1.00
5415;DHT22;2730;51.512;7.504;2024-01-16T14:40:25;2.00;1.00
5415;DHT22;2730;51.512;7.504;2024-01-16T14:42:53;1.90;1.00
5415;DHT22;2730;51.512;7.504;2024-01-16T14:45:24;2.00;1.00
5415;DHT22;2730;51.512;7.504;2024-01-16T14:47:52;2.00;3.10
5415;DHT22;2730;51.512;7.504;2024-01-16T14:50:20;1.90;4.90
5415;DHT22;2730;51.512;7.504;2024-01-16T14:52:48;1.90;4.40
5415;DHT22;2730;51.512;7.504;2024-01-16T14:55:15;1.80;21.90
5415;DHT22;2730;51.512;7.504;2024-01-16T14:57:42;1.90;1.00
5415;DHT22;2730;51.512;7.504;2024-01-16T15:00:16;1.90;1.00
5415;DHT22;2730;51.512;7.504;2024-01-16T15:02:46;1.80;25.20
5415;DHT22;2730;51.512;7.504;2024-01-16T15:05:14;1.80;83.30
5415;DHT22;2730;51.512;7.504;2024-01-16T15:07:42;1.80;53.60
5415;DHT22;2730;51.512;7.504;2024-01-16T15:10:09;1.70;90.50
5415;DHT22;2730;51.512;7.504;2024-01-16T15:12:37;1.60;99.90
5415;DHT22;2730;51.512;7.504;2024-01-16T15:15:07;1.50;99.90
5415;DHT22;2730;51.512;7.504;2024-01-16T15:17:34;1.50;93.60
5415;DHT22;2730;51.512;7.504;2024-01-16T15:20:03;1.50;99.90
5415;DHT22;2730;51.512;7.504;2024-01-16T15:22:34;1.30;99.90
5415;DHT22;2730;51.512;7.504;2024-01-16T15:25:00;1.10;99.90
5415;DHT22;2730;51.512;7.504;2024-01-16T15:27:30;1.00;99.90
5415;DHT22;2730;51.512;7.504;2024-01-16T15:29:58;0.90;1.00
5415;DHT22;2730;51.512;7.504;2024-01-16T15:32:25;0.90;1.00
5415;DHT22;2730;51.512;7.504;2024-01-16T15:34:52;0.80;1.00
5415;DHT22;2730;51.512;7.504;2024-01-16T15:37:20;0.60;1.00
5415;DHT22;2730;51.512;7.504;2024-01-16T15:39:47;0.60;1.00
5415;DHT22;2730;51.512;7.504;2024-01-16T15:42:14;0.50;16.60
5415;DHT22;2730;51.512;7.504;2024-01-16T15:44:42;0.60;25.30
5415;DHT22;2730;51.512;7.504;2024-01-16T15:47:10;0.50;1.00
5415;DHT22;2730;51.512;7.504;2024-01-16T15:49:37;0.40;1.00
5415;DHT22;2730;51.512;7.504;2024-01-16T15:52:04;0.30;73.70
5415;DHT22;2730;51.512;7.504;2024-01-16T15:54:33;0.30;99.90
5415;DHT22;2730;51.512;7.504;2024-01-16T15:57:00;0.20;99.90
5415;DHT22;2730;51.512;7.504;2024-01-16T15:59:27;0.10;1.00
5415;DHT22;2730;51.512;7.504;2024-01-16T16:01:54;0.00;1.00
5415;DHT22;2730;51.512;7.504;2024-01-16T16:04:21;0.00;1.00
5415;DHT22;2730;51.512;7.504;2024-01-16T16:06:49;0.00;1.00
5415;DHT22;2730;51.512;7.504;2024-01-16T16:09:16;-0.10;1.00
5415;DHT22;2730;51.512;7.504;2024-01-16T16:11:48;-0.10;1.00
5415;DHT22;2730;51.512;7.504;2024-01-16T16:14:19;-0.20;1.00
5415;DHT22;2730;51.512;7.504;2024-01-16T16:16:50;-0.30;1.00
5415;DHT22;2730;51.512;7.504;2024-01-16T16:19:20;-0.30;1.00
5415;DHT22;2730;51.512;7.504;2024-01-16T16:21:47;-0.30;1.00
5415;DHT22;2730;51.512;7.504;2024-01-16T16:24:15;-0.20;1.00
5415;DHT22;2730;51.512;7.504;2024-01-16T16:26:43;-0.30;1.00
5415;DHT22;2730;51.512;7.504;2024-01-16T16:29:12;-0.30;1.00
5415;DHT22;2730;51.512;7.504;2024-01-16T16:31:40;-0.30;1.00
5415;DHT22;2730;51.512;7.504;2024-01-16T16:34:08;-0.50;99.90